Time,TemperatureF,DewpointF,PressureIn,WindDirection,WindDirectionDegrees,WindSpeedMPH,WindSpeedGustMPH,Humidity,HourlyPrecipIn,Conditions,Clouds,dailyrainin,SoftwareType,DateUTC
2013-08-29 00:03:00,70.2,64.0,30.05,SSE,157,0.0,-999.0,81,0.00,,,0.00,open2300 v1.10,2013-08-29 05:03:00,
2013-08-29 00:11:00,70.2,64.4,30.05,SSE,157,0.0,-999.0,82,0.00,,,0.00,open2300 v1.10,2013-08-29 05:11:00,
2013-08-29 00:17:00,70.0,64.2,30.04,SSE,157,0.0,-999.0,82,0.00,,,0.00,open2300 v1.10,2013-08-29 05:17:00,
2013-08-29 00:26:00,69.6,63.8,30.04,SSE,157,0.0,-999.0,82,0.00,,,0.00,open2300 v1.10,2013-08-29 05:26:00,
2013-08-29 00:32:00,69.6,63.8,30.04,SSE,157,0.0,-999.0,82,0.00,,,0.00,open2300 v1.10,2013-08-29 05:32:00,
2013-08-29 00:41:00,69.4,63.7,30.04,SSE,157,0.0,-999.0,82,0.00,,,0.00,open2300 v1.10,2013-08-29 05:41:00,
2013-08-29 00:47:00,69.4,63.7,30.04,SSE,157,0.0,-999.0,82,0.00,,,0.00,open2300 v1.10,2013-08-29 05:47:00,
2013-08-29 00:56:00,69.3,63.5,30.04,SSE,157,0.0,-999.0,82,0.00,,,0.00,open2300 v1.10,2013-08-29 05:56:00,
2013-08-29 01:05:00,69.1,63.3,30.05,SSE,157,0.0,-999.0,82,0.00,,,0.00,open2300 v1.10,2013-08-29 06:05:00,
2013-08-29 01:11:00,68.9,63.2,30.05,SSE,157,0.0,-999.0,82,0.00,,,0.00,open2300 v1.10,2013-08-29 06:11:00,
2013-08-29 01:17:00,68.7,63.0,30.05,SSE,157,0.0,-999.0,82,0.00,,,0.00,open2300 v1.10,2013-08-29 06:17:00,
2013-08-29 01:26:00,68.7,63.3,30.04,SSE,157,0.0,-999.0,83,0.00,,,0.00,open2300 v1.10,2013-08-29 06:26:00,
2013-08-29 01:32:00,68.5,63.2,30.04,SSE,157,0.0,-999.0,83,0.00,,,0.00,open2300 v1.10,2013-08-29 06:32:00,
2013-08-29 01:41:00,68.5,63.2,30.04,SSE,157,0.0,-999.0,83,0.00,,,0.00,open2300 v1.10,2013-08-29 06:41:00,
2013-08-29 01:47:00,68.4,63.0,30.04,SSE,157,0.0,-999.0,83,0.00,,,0.00,open2300 v1.10,2013-08-29 06:47:00,
2013-08-29 01:56:00,68.2,62.8,30.04,SSE,157,0.0,-999.0,83,0.00,,,0.00,open2300 v1.10,2013-08-29 06:56:00,
2013-08-29 02:03:00,68.2,62.8,30.04,SSE,157,0.0,-999.0,83,0.00,,,0.00,open2300 v1.10,2013-08-29 07:03:00,
2013-08-29 02:11:00,68.2,63.2,30.04,SSE,157,0.0,-999.0,84,0.00,,,0.00,open2300 v1.10,2013-08-29 07:11:00,
2013-08-29 02:17:00,68.2,63.2,30.03,SSE,157,0.0,-999.0,84,0.00,,,0.00,open2300 v1.10,2013-08-29 07:17:00,
2013-08-29 02:26:00,68.0,63.0,30.04,SSE,157,0.0,-999.0,84,0.00,,,0.00,open2300 v1.10,2013-08-29 07:26:00,
2013-08-29 02:32:00,67.8,62.8,30.04,SSE,157,0.0,-999.0,84,0.00,,,0.00,open2300 v1.10,2013-08-29 07:32:00,
2013-08-29 02:41:00,68.0,63.0,30.03,SSE,157,0.0,-999.0,84,0.00,,,0.00,open2300 v1.10,2013-08-29 07:41:00,
2013-08-29 02:47:00,67.8,63.1,30.03,SSE,157,0.0,-999.0,85,0.00,,,0.00,open2300 v1.10,2013-08-29 07:47:00,
2013-08-29 02:56:00,68.2,63.5,30.04,SSE,157,0.0,-999.0,85,0.00,,,0.00,open2300 v1.10,2013-08-29 07:56:00,
2013-08-29 03:03:00,68.0,63.3,30.04,SSE,157,0.0,-999.0,85,0.00,,,0.00,open2300 v1.10,2013-08-29 08:03:00,
2013-08-29 03:11:00,67.8,63.1,30.03,SSE,157,0.0,-999.0,85,0.00,,,0.00,open2300 v1.10,2013-08-29 08:11:00,
2013-08-29 03:17:00,67.8,63.1,30.03,SSE,157,0.0,-999.0,85,0.00,,,0.00,open2300 v1.10,2013-08-29 08:17:00,
2013-08-29 03:26:00,67.6,63.0,30.03,SSE,157,0.0,-999.0,85,0.00,,,0.00,open2300 v1.10,2013-08-29 08:26:00,
2013-08-29 03:32:00,67.3,62.6,30.03,SSE,157,0.0,-999.0,85,0.00,,,0.00,open2300 v1.10,2013-08-29 08:32:00,
2013-08-29 03:41:00,66.9,62.2,30.03,SSE,157,0.0,-999.0,85,0.00,,,0.00,open2300 v1.10,2013-08-29 08:41:00,
2013-08-29 03:47:00,66.9,62.2,30.03,SSE,157,0.0,-999.0,85,0.00,,,0.00,open2300 v1.10,2013-08-29 08:47:00,
2013-08-29 03:56:00,66.9,62.2,30.03,SSE,157,0.0,-999.0,85,0.00,,,0.00,open2300 v1.10,2013-08-29 08:56:00,
2013-08-29 04:03:00,66.9,62.2,30.03,SSE,157,0.0,-999.0,85,0.00,,,0.00,open2300 v1.10,2013-08-29 09:03:00,
2013-08-29 04:11:00,66.7,62.1,30.03,SSE,157,0.0,-999.0,85,0.00,,,0.00,open2300 v1.10,2013-08-29 09:11:00,
2013-08-29 04:17:00,66.7,62.4,30.03,SSE,157,0.0,-999.0,86,0.00,,,0.00,open2300 v1.10,2013-08-29 09:17:00,
2013-08-29 04:26:00,66.7,62.4,30.03,SSE,157,0.0,-999.0,86,0.00,,,0.00,open2300 v1.10,2013-08-29 09:26:00,
2013-08-29 04:32:00,66.7,62.4,30.03,SSE,157,0.0,-999.0,86,0.00,,,0.00,open2300 v1.10,2013-08-29 09:32:00,
2013-08-29 04:41:00,66.7,62.4,30.03,SSE,157,0.0,-999.0,86,0.00,,,0.00,open2300 v1.10,2013-08-29 09:41:00,
2013-08-29 04:47:00,66.7,62.4,30.03,SSE,157,0.0,-999.0,86,0.00,,,0.00,open2300 v1.10,2013-08-29 09:47:00,
2013-08-29 04:56:00,66.7,62.4,30.03,SSE,157,0.0,-999.0,86,0.00,,,0.00,open2300 v1.10,2013-08-29 09:56:00,
2013-08-29 05:03:00,66.6,62.2,30.03,SSE,157,0.0,-999.0,86,0.00,,,0.00,open2300 v1.10,2013-08-29 10:03:00,
2013-08-29 05:11:00,66.4,62.0,30.03,SSE,157,0.0,-999.0,86,0.00,,,0.00,open2300 v1.10,2013-08-29 10:11:00,
2013-08-29 05:17:00,66.4,62.0,30.04,SSE,157,0.0,-999.0,86,0.00,,,0.00,open2300 v1.10,2013-08-29 10:17:00,
2013-08-29 05:26:00,66.4,62.0,30.04,SSE,157,0.0,-999.0,86,0.00,,,0.00,open2300 v1.10,2013-08-29 10:26:00,
2013-08-29 05:32:00,66.4,62.0,30.04,SSE,157,0.0,-999.0,86,0.00,,,0.00,open2300 v1.10,2013-08-29 10:32:00,
2013-08-29 05:41:00,66.2,61.8,30.04,SSE,157,0.0,-999.0,86,0.00,,,0.00,open2300 v1.10,2013-08-29 10:41:00,
2013-08-29 05:47:00,66.2,61.8,30.04,SSE,157,0.0,-999.0,86,0.00,,,0.00,open2300 v1.10,2013-08-29 10:47:00,
2013-08-29 05:56:00,66.0,61.7,30.04,SSE,157,0.0,-999.0,86,0.00,,,0.00,open2300 v1.10,2013-08-29 10:56:00,
2013-08-29 06:03:00,66.0,61.7,30.04,SSE,157,0.0,-999.0,86,0.00,,,0.00,open2300 v1.10,2013-08-29 11:03:00,
2013-08-29 06:11:00,66.0,61.7,30.05,SSE,157,0.0,-999.0,86,0.00,,,0.00,open2300 v1.10,2013-08-29 11:11:00,
2013-08-29 06:17:00,66.0,61.7,30.05,SSE,157,0.0,-999.0,86,0.00,,,0.00,open2300 v1.10,2013-08-29 11:17:00,
2013-08-29 06:26:00,66.0,62.0,30.06,SSE,157,0.0,-999.0,87,0.00,,,0.00,open2300 v1.10,2013-08-29 11:26:00,
2013-08-29 06:32:00,65.8,61.8,30.05,SSE,157,0.0,-999.0,87,0.00,,,0.00,open2300 v1.10,2013-08-29 11:32:00,
2013-08-29 06:41:00,66.0,62.0,30.06,SSE,157,0.0,-999.0,87,0.00,,,0.00,open2300 v1.10,2013-08-29 11:41:00,
2013-08-29 06:47:00,66.0,62.0,30.06,SSE,157,0.0,-999.0,87,0.00,,,0.00,open2300 v1.10,2013-08-29 11:47:00,
2013-08-29 06:56:00,66.0,62.0,30.07,SSE,157,0.0,-999.0,87,0.00,,,0.00,open2300 v1.10,2013-08-29 11:56:00,
2013-08-29 07:03:00,66.0,62.0,30.07,SSE,157,0.0,-999.0,87,0.00,,,0.00,open2300 v1.10,2013-08-29 12:03:00,
2013-08-29 07:11:00,66.2,62.2,30.07,SSE,157,0.0,-999.0,87,0.00,,,0.00,open2300 v1.10,2013-08-29 12:11:00,
2013-08-29 07:17:00,66.4,62.3,30.07,SSE,157,0.0,-999.0,87,0.00,,,0.00,open2300 v1.10,2013-08-29 12:17:00,
2013-08-29 07:26:00,66.7,63.0,30.07,SSE,157,0.0,-999.0,88,0.00,,,0.00,open2300 v1.10,2013-08-29 12:26:00,
2013-08-29 07:32:00,66.9,63.2,30.07,SSE,157,0.0,-999.0,88,0.00,,,0.00,open2300 v1.10,2013-08-29 12:32:00,
2013-08-29 07:41:00,67.3,63.6,30.08,SSE,157,0.0,-999.0,88,0.00,,,0.00,open2300 v1.10,2013-08-29 12:41:00,
2013-08-29 07:47:00,67.6,63.9,30.08,SSE,157,0.0,-999.0,88,0.00,,,0.00,open2300 v1.10,2013-08-29 12:47:00,
2013-08-29 07:56:00,68.2,64.4,30.08,SSE,157,0.0,-999.0,88,0.00,,,0.00,open2300 v1.10,2013-08-29 12:56:00,
2013-08-29 08:03:00,68.5,64.8,30.08,SSE,157,0.0,-999.0,88,0.00,,,0.00,open2300 v1.10,2013-08-29 13:03:00,
2013-08-29 08:11:00,69.4,65.7,30.07,SSE,157,0.0,-999.0,88,0.00,,,0.00,open2300 v1.10,2013-08-29 13:11:00,
2013-08-29 08:17:00,70.2,66.4,30.08,SSE,157,0.0,-999.0,88,0.00,,,0.00,open2300 v1.10,2013-08-29 13:17:00,
2013-08-29 08:26:00,71.2,67.5,30.08,SSE,157,0.0,-999.0,88,0.00,,,0.00,open2300 v1.10,2013-08-29 13:26:00,
2013-08-29 08:32:00,71.4,67.3,30.08,SSE,157,0.0,-999.0,87,0.00,,,0.00,open2300 v1.10,2013-08-29 13:32:00,
2013-08-29 08:41:00,73.0,68.9,30.08,SSE,157,0.0,-999.0,87,0.00,,,0.00,open2300 v1.10,2013-08-29 13:41:00,
2013-08-29 08:47:00,73.9,69.8,30.08,SSE,157,0.0,-999.0,87,0.00,,,0.00,open2300 v1.10,2013-08-29 13:47:00,
2013-08-29 08:56:00,74.8,70.4,30.08,SSE,157,0.0,-999.0,86,0.00,,,0.00,open2300 v1.10,2013-08-29 13:56:00,
2013-08-29 09:03:00,75.4,70.6,30.08,SSE,157,0.0,-999.0,85,0.00,,,0.00,open2300 v1.10,2013-08-29 14:03:00,
2013-08-29 09:11:00,76.5,71.3,30.09,SSE,157,0.0,-999.0,84,0.00,,,0.00,open2300 v1.10,2013-08-29 14:11:00,
2013-08-29 09:17:00,77.2,71.6,30.08,SSE,157,0.0,-999.0,83,0.00,,,0.00,open2300 v1.10,2013-08-29 14:17:00,
2013-08-29 09:26:00,77.9,72.3,30.08,SSE,157,0.0,-999.0,83,0.00,,,0.00,open2300 v1.10,2013-08-29 14:26:00,
2013-08-29 09:32:00,78.6,72.3,30.09,SSE,157,0.0,-999.0,81,0.00,,,0.00,open2300 v1.10,2013-08-29 14:32:00,
2013-08-29 09:41:00,79.3,72.3,30.09,SSE,157,0.0,-999.0,79,0.00,,,0.00,open2300 v1.10,2013-08-29 14:41:00,
2013-08-29 09:47:00,80.4,72.6,30.09,SSE,157,0.0,-999.0,77,0.00,,,0.00,open2300 v1.10,2013-08-29 14:47:00,
2013-08-29 09:56:00,81.5,72.4,30.09,SSE,157,0.0,-999.0,74,0.00,,,0.00,open2300 v1.10,2013-08-29 14:56:00,
2013-08-29 10:03:00,82.2,71.8,30.08,SSE,157,0.0,-999.0,71,0.00,,,0.00,open2300 v1.10,2013-08-29 15:03:00,
2013-08-29 10:11:00,82.9,71.7,30.09,SSE,157,0.0,-999.0,69,0.00,,,0.00,open2300 v1.10,2013-08-29 15:11:00,
2013-08-29 10:17:00,83.5,70.4,30.09,NNE,22,0.0,-999.0,65,0.00,,,0.00,open2300 v1.10,2013-08-29 15:17:00,
2013-08-29 10:26:00,84.6,71.5,30.08,SE,135,0.0,-999.0,65,0.00,,,0.00,open2300 v1.10,2013-08-29 15:26:00,
2013-08-29 10:32:00,85.3,70.8,30.08,SSE,157,0.0,-999.0,62,0.00,,,0.00,open2300 v1.10,2013-08-29 15:32:00,
2013-08-29 10:41:00,86.4,70.3,30.09,SE,135,0.0,-999.0,59,0.00,,,0.00,open2300 v1.10,2013-08-29 15:41:00,
2013-08-29 10:47:00,87.4,70.9,30.08,SSE,157,0.0,-999.0,58,0.00,,,0.00,open2300 v1.10,2013-08-29 15:47:00,
2013-08-29 10:56:00,89.1,70.8,30.08,ENE,67,0.0,-999.0,55,0.00,,,0.00,open2300 v1.10,2013-08-29 15:56:00,
2013-08-29 11:03:00,90.1,71.2,30.08,SSE,157,0.0,-999.0,54,0.00,,,0.00,open2300 v1.10,2013-08-29 16:03:00,
2013-08-29 11:11:00,91.6,71.9,30.08,SSE,157,0.0,-999.0,53,0.00,,,0.00,open2300 v1.10,2013-08-29 16:11:00,
2013-08-29 11:17:00,92.1,70.8,30.08,North,0,0.0,-999.0,50,0.00,,,0.00,open2300 v1.10,2013-08-29 16:17:00,
2013-08-29 11:26:00,93.0,71.0,30.07,SE,135,0.0,-999.0,49,0.00,,,0.00,open2300 v1.10,2013-08-29 16:26:00,
2013-08-29 11:32:00,93.6,70.8,30.07,NNW,337,0.0,-999.0,48,0.00,,,0.00,open2300 v1.10,2013-08-29 16:32:00,
2013-08-29 11:41:00,93.4,70.0,30.07,SSW,202,0.0,-999.0,47,0.00,,,0.00,open2300 v1.10,2013-08-29 16:41:00,
2013-08-29 11:47:00,93.4,70.0,30.07,SSE,157,0.0,-999.0,47,0.00,,,0.00,open2300 v1.10,2013-08-29 16:47:00,
2013-08-29 11:56:00,93.4,70.0,30.07,WSW,247,0.0,-999.0,47,0.00,,,0.00,open2300 v1.10,2013-08-29 16:56:00,
2013-08-29 12:03:00,93.6,70.8,30.06,SSE,157,0.0,-999.0,48,0.00,,,0.00,open2300 v1.10,2013-08-29 17:03:00,
2013-08-29 12:11:00,92.8,71.5,30.06,SSE,157,0.0,-999.0,50,0.00,,,0.00,open2300 v1.10,2013-08-29 17:11:00,
2013-08-29 12:17:00,93.0,71.0,30.06,South,180,0.0,-999.0,49,0.00,,,0.00,open2300 v1.10,2013-08-29 17:17:00,
2013-08-29 12:26:00,93.7,71.0,30.06,SSE,157,0.0,-999.0,48,0.00,,,0.00,open2300 v1.10,2013-08-29 17:26:00,
2013-08-29 12:32:00,93.0,70.3,30.05,SSE,157,0.0,-999.0,48,0.00,,,0.00,open2300 v1.10,2013-08-29 17:32:00,
2013-08-29 12:41:00,91.6,69.0,30.05,SSW,202,0.0,-999.0,48,0.00,,,0.00,open2300 v1.10,2013-08-29 17:41:00,
2013-08-29 12:47:00,91.9,70.7,30.05,SSE,157,0.0,-999.0,50,0.00,,,0.00,open2300 v1.10,2013-08-29 17:47:00,
2013-08-29 12:56:00,93.6,70.8,30.05,SSW,202,0.0,-999.0,48,0.00,,,0.00,open2300 v1.10,2013-08-29 17:56:00,
2013-08-29 13:03:00,94.5,72.4,30.04,SE,135,0.0,-999.0,49,0.00,,,0.00,open2300 v1.10,2013-08-29 18:03:00,
2013-08-29 13:11:00,95.7,72.2,30.04,SE,135,0.0,-999.0,47,0.00,,,0.00,open2300 v1.10,2013-08-29 18:11:00,
2013-08-29 13:17:00,93.7,70.4,30.04,ENE,67,0.0,-999.0,47,0.00,,,0.00,open2300 v1.10,2013-08-29 18:17:00,
2013-08-29 13:26:00,92.1,69.5,30.04,NE,45,0.0,-999.0,48,0.00,,,0.00,open2300 v1.10,2013-08-29 18:26:00,
2013-08-29 13:32:00,92.8,70.8,30.03,SE,135,0.0,-999.0,49,0.00,,,0.00,open2300 v1.10,2013-08-29 18:32:00,
2013-08-29 13:41:00,93.2,71.1,30.03,SE,135,0.0,-999.0,49,0.00,,,0.00,open2300 v1.10,2013-08-29 18:41:00,
2013-08-29 13:47:00,93.9,71.8,30.03,SE,135,0.0,-999.0,49,0.00,,,0.00,open2300 v1.10,2013-08-29 18:47:00,
2013-08-29 13:56:00,93.0,71.0,30.03,East,90,0.0,-999.0,49,0.00,,,0.00,open2300 v1.10,2013-08-29 18:56:00,
2013-08-29 14:03:00,91.9,70.0,30.03,ENE,67,0.0,-999.0,49,0.00,,,0.00,open2300 v1.10,2013-08-29 19:03:00,
2013-08-29 14:11:00,91.0,70.4,30.02,SE,135,0.0,-999.0,51,0.00,,,0.00,open2300 v1.10,2013-08-29 19:11:00,
2013-08-29 14:17:00,91.2,70.5,30.02,SE,135,0.0,-999.0,51,0.00,,,0.00,open2300 v1.10,2013-08-29 19:17:00,
2013-08-29 14:26:00,90.7,70.1,30.01,SE,135,0.0,-999.0,51,0.00,,,0.00,open2300 v1.10,2013-08-29 19:26:00,
2013-08-29 14:32:00,91.2,71.1,30.01,SE,135,0.0,-999.0,52,0.00,,,0.00,open2300 v1.10,2013-08-29 19:32:00,
2013-08-29 14:41:00,90.5,69.9,30.01,SE,135,0.0,-999.0,51,0.00,,,0.00,open2300 v1.10,2013-08-29 19:41:00,
2013-08-29 14:47:00,90.1,70.1,30.01,SE,135,0.0,-999.0,52,0.00,,,0.00,open2300 v1.10,2013-08-29 19:47:00,
2013-08-29 14:56:00,90.1,70.7,30.00,SE,135,0.0,-999.0,53,0.00,,,0.00,open2300 v1.10,2013-08-29 19:56:00,
2013-08-29 15:03:00,89.8,70.3,30.00,SE,135,0.0,-999.0,53,0.00,,,0.00,open2300 v1.10,2013-08-29 20:03:00,
2013-08-29 15:11:00,89.6,70.7,30.00,SE,135,0.0,-999.0,54,0.00,,,0.00,open2300 v1.10,2013-08-29 20:11:00,
2013-08-29 15:17:00,90.3,70.8,30.00,SSE,157,0.0,-999.0,53,0.00,,,0.00,open2300 v1.10,2013-08-29 20:17:00,
2013-08-29 15:26:00,91.0,70.9,30.00,North,0,0.0,-999.0,52,0.00,,,0.00,open2300 v1.10,2013-08-29 20:26:00,
2013-08-29 15:32:00,91.2,70.5,30.00,West,270,0.0,-999.0,51,0.00,,,0.00,open2300 v1.10,2013-08-29 20:32:00,
2013-08-29 15:41:00,91.0,70.9,30.00,WSW,247,0.0,-999.0,52,0.00,,,0.00,open2300 v1.10,2013-08-29 20:41:00,
2013-08-29 15:47:00,91.0,71.5,30.00,WSW,247,0.0,-999.0,53,0.00,,,0.00,open2300 v1.10,2013-08-29 20:47:00,
2013-08-29 15:56:00,91.2,71.1,29.99,SSE,157,0.0,-999.0,52,0.00,,,0.00,open2300 v1.10,2013-08-29 20:56:00,
2013-08-29 16:03:00,91.0,70.9,29.99,SSE,157,0.0,-999.0,52,0.00,,,0.00,open2300 v1.10,2013-08-29 21:03:00,
2013-08-29 16:11:00,90.3,70.8,29.99,SSE,157,0.0,-999.0,53,0.00,,,0.00,open2300 v1.10,2013-08-29 21:11:00,
2013-08-29 16:17:00,90.3,70.8,29.99,SSE,157,0.0,-999.0,53,0.00,,,0.00,open2300 v1.10,2013-08-29 21:17:00,
2013-08-29 16:26:00,90.1,71.2,29.98,SSE,157,0.0,-999.0,54,0.00,,,0.00,open2300 v1.10,2013-08-29 21:26:00,
2013-08-29 16:32:00,90.0,70.5,29.98,SE,135,0.0,-999.0,53,0.00,,,0.00,open2300 v1.10,2013-08-29 21:32:00,
2013-08-29 16:41:00,89.4,70.5,29.98,SE,135,0.0,-999.0,54,0.00,,,0.00,open2300 v1.10,2013-08-29 21:41:00,
2013-08-29 16:47:00,89.2,70.9,29.98,SE,135,0.0,-999.0,55,0.00,,,0.00,open2300 v1.10,2013-08-29 21:47:00,
2013-08-29 16:56:00,89.4,70.5,29.98,SE,135,0.0,-999.0,54,0.00,,,0.00,open2300 v1.10,2013-08-29 21:56:00,
2013-08-29 17:03:00,90.0,71.0,29.98,SSE,157,0.0,-999.0,54,0.00,,,0.00,open2300 v1.10,2013-08-29 22:03:00,
2013-08-29 17:11:00,90.5,71.0,29.98,SSE,157,0.0,-999.0,53,0.00,,,0.00,open2300 v1.10,2013-08-29 22:11:00,
2013-08-29 17:17:00,90.5,71.0,29.98,SSE,157,0.0,-999.0,53,0.00,,,0.00,open2300 v1.10,2013-08-29 22:17:00,
2013-08-29 17:26:00,90.3,70.8,29.98,SSE,157,0.0,-999.0,53,0.00,,,0.00,open2300 v1.10,2013-08-29 22:26:00,
2013-08-29 17:32:00,90.5,70.4,29.98,SSE,157,0.0,-999.0,52,0.00,,,0.00,open2300 v1.10,2013-08-29 22:32:00,
2013-08-29 17:41:00,90.5,71.0,29.97,SSE,157,0.0,-999.0,53,0.00,,,0.00,open2300 v1.10,2013-08-29 22:41:00,
2013-08-29 17:47:00,90.7,71.1,29.98,SSE,157,0.0,-999.0,53,0.00,,,0.00,open2300 v1.10,2013-08-29 22:47:00,
2013-08-29 17:56:00,90.7,70.6,29.98,SSE,157,0.0,-999.0,52,0.00,,,0.00,open2300 v1.10,2013-08-29 22:56:00,
2013-08-29 18:03:00,90.5,70.4,29.98,SSE,157,0.0,-999.0,52,0.00,,,0.00,open2300 v1.10,2013-08-29 23:03:00,
2013-08-29 18:11:00,90.0,70.5,29.97,SSE,157,0.0,-999.0,53,0.00,,,0.00,open2300 v1.10,2013-08-29 23:11:00,
2013-08-29 18:17:00,89.4,70.5,29.98,SSE,157,0.0,-999.0,54,0.00,,,0.00,open2300 v1.10,2013-08-29 23:17:00,
2013-08-29 18:26:00,88.9,70.6,29.98,SSE,157,0.0,-999.0,55,0.00,,,0.00,open2300 v1.10,2013-08-29 23:26:00,
2013-08-29 18:32:00,88.3,70.1,29.98,SSE,157,0.0,-999.0,55,0.00,,,0.00,open2300 v1.10,2013-08-29 23:32:00,
2013-08-29 18:41:00,87.6,70.0,29.98,SSE,157,0.0,-999.0,56,0.00,,,0.00,open2300 v1.10,2013-08-29 23:41:00,
2013-08-29 18:47:00,87.1,70.0,29.98,SSE,157,0.0,-999.0,57,0.00,,,0.00,open2300 v1.10,2013-08-29 23:47:00,
2013-08-29 18:56:00,86.4,69.8,29.98,SSE,157,0.0,-999.0,58,0.00,,,0.00,open2300 v1.10,2013-08-29 23:56:00,
2013-08-29 19:03:00,85.8,69.8,29.98,SSE,157,0.0,-999.0,59,0.00,,,0.00,open2300 v1.10,2013-08-30 00:03:00,
2013-08-29 19:11:00,85.5,70.0,29.98,SSE,157,0.0,-999.0,60,0.00,,,0.00,open2300 v1.10,2013-08-30 00:11:00,
2013-08-29 19:17:00,84.9,70.0,29.98,SSE,157,0.0,-999.0,61,0.00,,,0.00,open2300 v1.10,2013-08-30 00:17:00,
2013-08-29 19:26:00,84.6,70.1,29.98,SSE,157,0.0,-999.0,62,0.00,,,0.00,open2300 v1.10,2013-08-30 00:26:00,
2013-08-29 19:32:00,84.0,70.1,29.98,SSE,157,0.0,-999.0,63,0.00,,,0.00,open2300 v1.10,2013-08-30 00:32:00,
2013-08-29 19:41:00,83.7,70.2,29.99,SSE,157,0.0,-999.0,64,0.00,,,0.00,open2300 v1.10,2013-08-30 00:41:00,
2013-08-29 19:47:00,83.1,69.6,29.99,SSE,157,0.0,-999.0,64,0.00,,,0.00,open2300 v1.10,2013-08-30 00:47:00,
2013-08-29 19:56:00,82.8,70.2,29.99,SSE,157,0.0,-999.0,66,0.00,,,0.00,open2300 v1.10,2013-08-30 00:56:00,
2013-08-29 20:03:00,82.2,70.1,29.99,SSE,157,0.0,-999.0,67,0.00,,,0.00,open2300 v1.10,2013-08-30 01:03:00,
2013-08-29 20:11:00,81.9,70.2,29.99,SSE,157,0.0,-999.0,68,0.00,,,0.00,open2300 v1.10,2013-08-30 01:11:00,
2013-08-29 20:17:00,81.5,69.9,29.99,SSE,157,0.0,-999.0,68,0.00,,,0.00,open2300 v1.10,2013-08-30 01:17:00,
2013-08-29 20:26:00,81.0,69.8,29.99,SSE,157,0.0,-999.0,69,0.00,,,0.00,open2300 v1.10,2013-08-30 01:26:00,
2013-08-29 20:32:00,80.8,69.7,29.99,SSE,157,0.0,-999.0,69,0.00,,,0.00,open2300 v1.10,2013-08-30 01:32:00,
2013-08-29 20:41:00,80.4,69.8,29.99,SSE,157,0.0,-999.0,70,0.00,,,0.00,open2300 v1.10,2013-08-30 01:41:00,
2013-08-29 20:47:00,79.9,69.7,30.00,SSE,157,0.0,-999.0,71,0.00,,,0.00,open2300 v1.10,2013-08-30 01:47:00,
2013-08-29 20:56:00,79.5,69.7,30.00,SSE,157,0.0,-999.0,72,0.00,,,0.00,open2300 v1.10,2013-08-30 01:56:00,
2013-08-29 21:03:00,79.2,69.3,30.00,SSE,157,0.0,-999.0,72,0.00,,,0.00,open2300 v1.10,2013-08-30 02:03:00,
2013-08-29 21:32:00,77.9,69.3,30.00,SSE,157,0.0,-999.0,75,0.00,,,0.00,open2300 v1.10,2013-08-30 02:32:00,
2013-08-29 21:41:00,77.5,69.3,30.00,SSE,157,0.0,-999.0,76,0.00,,,0.00,open2300 v1.10,2013-08-30 02:41:00,
2013-08-29 21:47:00,77.4,69.2,30.00,SSE,157,0.0,-999.0,76,0.00,,,0.00,open2300 v1.10,2013-08-30 02:47:00,
2013-08-29 21:56:00,77.0,69.2,29.99,SSE,157,0.0,-999.0,77,0.00,,,0.00,open2300 v1.10,2013-08-30 02:56:00,
2013-08-29 22:03:00,76.8,69.0,30.00,SSE,157,0.0,-999.0,77,0.00,,,0.00,open2300 v1.10,2013-08-30 03:03:00,
2013-08-29 22:11:00,76.6,68.9,29.99,SSE,157,0.0,-999.0,77,0.00,,,0.00,open2300 v1.10,2013-08-30 03:11:00,
2013-08-29 22:17:00,76.5,69.1,30.00,SSE,157,0.0,-999.0,78,0.00,,,0.00,open2300 v1.10,2013-08-30 03:17:00,
2013-08-29 22:26:00,76.3,68.9,29.99,SSE,157,0.0,-999.0,78,0.00,,,0.00,open2300 v1.10,2013-08-30 03:26:00,
2013-08-29 22:32:00,76.3,69.3,29.99,SSE,157,0.0,-999.0,79,0.00,,,0.00,open2300 v1.10,2013-08-30 03:32:00,
2013-08-29 22:41:00,75.9,69.0,29.99,SSE,157,0.0,-999.0,79,0.00,,,0.00,open2300 v1.10,2013-08-30 03:41:00,
2013-08-29 22:47:00,75.9,69.0,29.99,SSE,157,0.0,-999.0,79,0.00,,,0.00,open2300 v1.10,2013-08-30 03:47:00,
2013-08-29 22:56:00,75.7,69.2,29.99,SSE,157,0.0,-999.0,80,0.00,,,0.00,open2300 v1.10,2013-08-30 03:56:00,
2013-08-29 23:03:00,75.6,69.0,29.99,SSE,157,0.0,-999.0,80,0.00,,,0.00,open2300 v1.10,2013-08-30 04:03:00,
2013-08-29 23:11:00,75.4,69.2,29.99,SSE,157,0.0,-999.0,81,0.00,,,0.00,open2300 v1.10,2013-08-30 04:11:00,
2013-08-29 23:17:00,75.2,69.1,29.99,SSE,157,0.0,-999.0,81,0.00,,,0.00,open2300 v1.10,2013-08-30 04:17:00,
2013-08-29 23:26:00,75.0,68.9,29.99,SSE,157,0.0,-999.0,81,0.00,,,0.00,open2300 v1.10,2013-08-30 04:26:00,
2013-08-29 23:32:00,74.8,68.7,29.98,SSE,157,0.0,-999.0,81,0.00,,,0.00,open2300 v1.10,2013-08-30 04:32:00,
2013-08-29 23:41:00,74.7,68.9,29.99,SSE,157,0.0,-999.0,82,0.00,,,0.00,open2300 v1.10,2013-08-30 04:41:00,
2013-08-29 23:47:00,74.5,68.7,29.99,SSE,157,0.0,-999.0,82,0.00,,,0.00,open2300 v1.10,2013-08-30 04:47:00,
2013-08-29 23:56:00,74.5,69.0,29.99,SSE,157,0.0,-999.0,83,0.00,,,0.00,open2300 v1.10,2013-08-30 04:56:00,